Navigator Spirit — C6WL4 — position and weather

sailwx.info

Track history (hours):
 
Tides and Currents Weather Stations Pressure Air Temp Water Temp Dewpoint Dewpoint Depression Visibility Wind Speed Wind Dir Waves Ship Positions

Navigator Spirit

Last reported at 2014-Sep-14 17:30 UTC. Time now 2014-Sep-16 04:58 UTC.
Position N 37°07' E 005°17'.

Length 241 m; draft 8.3 m.

Type: Tanker. MMSI: 309198000.

Date/timePositionNaut miles runAvg speedWind from/ knotsBaromVisibWave heightAir tempDewpointWater temp
2014-Sep-14 17:30N 37°07' E 005°17'0 0.2
2014-Sep-14 16:11N 37°07' E 005°16'0 0.3
2014-Sep-14 15:27N 37°07' E 005°16'1 0.7
2014-Sep-14 14:27N 37°07' E 005°16'1 0.8
2014-Sep-14 13:33N 37°08' E 005°17'2 1.2
2014-Sep-14 12:13N 37°06' E 005°19'1 0.6
2014-Sep-14 11:17N 37°06' E 005°19'3 0.2
2014-Sep-13 20:22N 37°04' E 005°16'1 0.2
2014-Sep-13 14:29N 37°04' E 005°17'0 0.4
2014-Sep-13 13:33N 37°04' E 005°17'3 3.1
2014-Sep-13 12:31N 37°03' E 005°20'51 7.0
2014-Sep-13 05:14N 37°10' E 004°18'913.5
2014-Sep-13 04:33N 37°10' E 004°06'1414.0
2014-Sep-13 03:33N 37°09' E 003°49'1414.1
2014-Sep-13 02:34N 37°06' E 003°31'1414.2
2014-Sep-13 01:33N 37°04' E 003°14'1413.8
2014-Sep-13 00:33N 37°01' E 002°57'1413.9
2014-Sep-12 23:33N 36°59' E 002°40'1413.6
2014-Sep-12 22:33N 36°56' E 002°23'1313.1
2014-Sep-12 21:33N 36°54' E 002°07'1313.1
2014-Sep-12 20:33N 36°51' E 001°51'1313.1
2014-Sep-12 19:33N 36°48' E 001°35'1313.1
2014-Sep-12 18:33N 36°45' E 001°19'1312.9
2014-Sep-12 17:32N 36°42' E 001°03'1212.6
2014-Sep-12 16:34N 36°39' E 000°48'1312.5
2014-Sep-12 15:33N 36°36' E 000°33'1313.0
2014-Sep-12 14:34N 36°33' E 000°18'9 4.0
2014-Sep-12 12:19N 36°31' E 000°07'34 5.8
2014-Sep-12 06:25N 36°29' W 000°36'1011.3
2014-Sep-12 05:31N 36°28' W 000°49'6011.1
2014-Sep-12 00:07N 36°17' W 002°02'15712.2
2014-Sep-11 11:14N 35°60' W 005°15'  
2014-Sep-09 05:26N 36°02' W 005°20'16312.4
2014-Sep-08 16:17N 36°27' W 001°60'2413.8
2014-Sep-08 14:32N 36°31' W 001°30'3314.0
2014-Sep-08 12:09N 36°35' W 000°49'5213.9
2014-Sep-08 08:26N 36°44' E 000°15'1313.9
2014-Sep-08 07:29N 36°45' E 000°31'1112.0
2014-Sep-08 06:33N 36°47' E 000°45'1111.3
2014-Sep-08 05:33N 36°48' E 000°59'7512.6
2014-Sep-07 23:33N 36°60' E 002°32'2512.4
2014-Sep-07 21:33N 37°03' E 003°03'1312.7
2014-Sep-07 20:33N 37°05' E 003°18'1413.4
2014-Sep-07 19:31N 37°07' E 003°36'1513.6
2014-Sep-07 18:27N 37°09' E 003°54'1213.5
2014-Sep-07 17:33N 37°11' E 004°09'1313.3
2014-Sep-07 16:33N 37°07' E 004°24'1313.2
2014-Sep-07 15:33N 37°02' E 004°40'1413.3
2014-Sep-07 14:32N 36°56' E 004°56'1411.6
2014-Sep-07 13:18N 36°46' E 005°08'5 0.1
2014-Sep-05 17:32N 36°50' E 005°11'11712.3
2014-Sep-05 08:04N 36°58' E 002°46'913.8
2014-Sep-05 07:25N 36°56' E 002°35'8213.6
2014-Sep-05 01:25N 36°42' E 000°54'1513.4
2014-Sep-05 00:18N 36°39' E 000°36'1113.8
2014-Sep-04 23:32N 36°37' E 000°23'1413.7
2014-Sep-04 22:33N 36°35' E 000°06'1613.3
2014-Sep-04 21:20N 36°32' W 000°14'1415.6
2014-Sep-04 20:28N 36°30' W 000°30'1010.6
2014-Sep-04 19:33N 36°28' W 000°42'1913.0
2014-Sep-04 18:04N 36°25' W 001°06'  
Track history (hours):
 
Tides and Currents Weather Stations Pressure Air Temp Water Temp Dewpoint Dewpoint Depression Visibility Wind Speed Wind Dir Waves Ship Positions

Navigator Spirit

Last reported at 2014-Sep-14 17:30 UTC. Time now 2014-Sep-16 04:58 UTC.
Position N 37°07' E 005°17'.

Length 241 m; draft 8.3 m.

Type: Tanker. MMSI: 309198000.

Date/timePositionNaut miles runAvg speedWind from/ knotsBaromVisibWave heightAir tempDewpointWater temp
2014-Sep-14 17:30N 37°07' E 005°17'0 0.2
2014-Sep-14 16:11N 37°07' E 005°16'0 0.3
2014-Sep-14 15:27N 37°07' E 005°16'1 0.7
2014-Sep-14 14:27N 37°07' E 005°16'1 0.8
2014-Sep-14 13:33N 37°08' E 005°17'2 1.2
2014-Sep-14 12:13N 37°06' E 005°19'1 0.6
2014-Sep-14 11:17N 37°06' E 005°19'3 0.2
2014-Sep-13 20:22N 37°04' E 005°16'1 0.2
2014-Sep-13 14:29N 37°04' E 005°17'0 0.4
2014-Sep-13 13:33N 37°04' E 005°17'3 3.1
2014-Sep-13 12:31N 37°03' E 005°20'51 7.0
2014-Sep-13 05:14N 37°10' E 004°18'913.5
2014-Sep-13 04:33N 37°10' E 004°06'1414.0
2014-Sep-13 03:33N 37°09' E 003°49'1414.1
2014-Sep-13 02:34N 37°06' E 003°31'1414.2
2014-Sep-13 01:33N 37°04' E 003°14'1413.8
2014-Sep-13 00:33N 37°01' E 002°57'1413.9
2014-Sep-12 23:33N 36°59' E 002°40'1413.6
2014-Sep-12 22:33N 36°56' E 002°23'1313.1
2014-Sep-12 21:33N 36°54' E 002°07'1313.1
2014-Sep-12 20:33N 36°51' E 001°51'1313.1
2014-Sep-12 19:33N 36°48' E 001°35'1313.1
2014-Sep-12 18:33N 36°45' E 001°19'1312.9
2014-Sep-12 17:32N 36°42' E 001°03'1212.6
2014-Sep-12 16:34N 36°39' E 000°48'1312.5
2014-Sep-12 15:33N 36°36' E 000°33'1313.0
2014-Sep-12 14:34N 36°33' E 000°18'9 4.0
2014-Sep-12 12:19N 36°31' E 000°07'34 5.8
2014-Sep-12 06:25N 36°29' W 000°36'1011.3
2014-Sep-12 05:31N 36°28' W 000°49'6011.1
2014-Sep-12 00:07N 36°17' W 002°02'15712.2
2014-Sep-11 11:14N 35°60' W 005°15'  
2014-Sep-09 05:26N 36°02' W 005°20'16312.4
2014-Sep-08 16:17N 36°27' W 001°60'2413.8
2014-Sep-08 14:32N 36°31' W 001°30'3314.0
2014-Sep-08 12:09N 36°35' W 000°49'5213.9
2014-Sep-08 08:26N 36°44' E 000°15'1313.9
2014-Sep-08 07:29N 36°45' E 000°31'1112.0
2014-Sep-08 06:33N 36°47' E 000°45'1111.3
2014-Sep-08 05:33N 36°48' E 000°59'7512.6
2014-Sep-07 23:33N 36°60' E 002°32'2512.4
2014-Sep-07 21:33N 37°03' E 003°03'1312.7
2014-Sep-07 20:33N 37°05' E 003°18'1413.4
2014-Sep-07 19:31N 37°07' E 003°36'1513.6
2014-Sep-07 18:27N 37°09' E 003°54'1213.5
2014-Sep-07 17:33N 37°11' E 004°09'1313.3
2014-Sep-07 16:33N 37°07' E 004°24'1313.2
2014-Sep-07 15:33N 37°02' E 004°40'1413.3
2014-Sep-07 14:32N 36°56' E 004°56'1411.6
2014-Sep-07 13:18N 36°46' E 005°08'5 0.1
2014-Sep-05 17:32N 36°50' E 005°11'11712.3
2014-Sep-05 08:04N 36°58' E 002°46'913.8
2014-Sep-05 07:25N 36°56' E 002°35'8213.6
2014-Sep-05 01:25N 36°42' E 000°54'1513.4
2014-Sep-05 00:18N 36°39' E 000°36'1113.8
2014-Sep-04 23:32N 36°37' E 000°23'1413.7
2014-Sep-04 22:33N 36°35' E 000°06'1613.3
2014-Sep-04 21:20N 36°32' W 000°14'1415.6
2014-Sep-04 20:28N 36°30' W 000°30'1010.6
2014-Sep-04 19:33N 36°28' W 000°42'1913.0
2014-Sep-04 18:04N 36°25' W 001°06'  

Dump ship's entire track history